sensor_id;sensor_type;location;lat;lon;timestamp;pressure;altitude;pressure_sealevel;temperature;humidity
52319;BME280;38258;51.148;14.068;2023-10-08T00:01:39;98336.13;;;14.28;100.00
52319;BME280;38258;51.148;14.068;2023-10-08T00:04:09;98332.47;;;14.31;100.00
52319;BME280;38258;51.148;14.068;2023-10-08T00:06:36;98336.94;;;14.28;100.00
52319;BME280;38258;51.148;14.068;2023-10-08T00:09:04;98343.09;;;14.29;100.00
52319;BME280;38258;51.148;14.068;2023-10-08T00:11:34;98329.69;;;14.34;100.00
52319;BME280;38258;51.148;14.068;2023-10-08T00:14:01;98334.13;;;14.33;100.00
52319;BME280;38258;51.148;14.068;2023-10-08T00:16:31;98333.94;;;14.38;100.00
52319;BME280;38258;51.148;14.068;2023-10-08T00:18:59;98331.63;;;14.30;100.00
52319;BME280;38258;51.148;14.068;2023-10-08T00:21:33;98338.81;;;14.26;100.00
52319;BME280;38258;51.148;14.068;2023-10-08T00:24:01;98334.53;;;14.24;100.00
52319;BME280;38258;51.148;14.068;2023-10-08T00:26:32;98332.34;;;14.34;100.00
52319;BME280;38258;51.148;14.068;2023-10-08T00:29:02;98323.22;;;14.22;100.00
52319;BME280;38258;51.148;14.068;2023-10-08T00:31:33;98320.69;;;14.20;100.00
52319;BME280;38258;51.148;14.068;2023-10-08T00:34:06;98325.06;;;14.20;100.00
52319;BME280;38258;51.148;14.068;2023-10-08T00:36:36;98329.84;;;14.31;100.00
52319;BME280;38258;51.148;14.068;2023-10-08T00:39:04;98316.88;;;14.26;100.00
52319;BME280;38258;51.148;14.068;2023-10-08T00:41:35;98321.75;;;14.35;100.00
52319;BME280;38258;51.148;14.068;2023-10-08T00:44:07;98324.88;;;14.24;100.00
52319;BME280;38258;51.148;14.068;2023-10-08T00:46:35;98327.69;;;14.20;100.00
52319;BME280;38258;51.148;14.068;2023-10-08T00:49:05;98329.69;;;14.14;100.00
52319;BME280;38258;51.148;14.068;2023-10-08T00:51:50;98331.91;;;14.24;100.00
52319;BME280;38258;51.148;14.068;2023-10-08T00:54:44;98337.25;;;14.22;100.00
52319;BME280;38258;51.148;14.068;2023-10-08T00:57:22;98335.94;;;14.12;100.00
52319;BME280;38258;51.148;14.068;2023-10-08T00:59:49;98326.38;;;14.30;100.00
52319;BME280;38258;51.148;14.068;2023-10-08T01:02:20;98324.44;;;14.14;100.00
52319;BME280;38258;51.148;14.068;2023-10-08T01:04:50;98325.00;;;14.21;100.00
52319;BME280;38258;51.148;14.068;2023-10-08T01:07:20;98337.09;;;14.25;100.00
52319;BME280;38258;51.148;14.068;2023-10-08T01:09:49;98348.53;;;14.24;100.00
52319;BME280;38258;51.148;14.068;2023-10-08T01:12:17;98356.25;;;14.08;100.00
52319;BME280;38258;51.148;14.068;2023-10-08T01:14:47;98369.34;;;13.00;100.00
52319;BME280;38258;51.148;14.068;2023-10-08T01:17:20;98384.28;;;12.26;100.00
52319;BME280;38258;51.148;14.068;2023-10-08T01:19:51;98370.34;;;11.99;100.00
52319;BME280;38258;51.148;14.068;2023-10-08T01:22:23;98380.69;;;11.77;100.00
52319;BME280;38258;51.148;14.068;2023-10-08T01:24:53;98374.72;;;11.71;100.00
52319;BME280;38258;51.148;14.068;2023-10-08T01:27:20;98376.81;;;11.62;100.00
52319;BME280;38258;51.148;14.068;2023-10-08T01:29:49;98389.94;;;11.60;100.00
52319;BME280;38258;51.148;14.068;2023-10-08T01:32:17;98392.81;;;11.52;100.00
52319;BME280;38258;51.148;14.068;2023-10-08T01:34:45;98395.25;;;11.58;100.00
52319;BME280;38258;51.148;14.068;2023-10-08T01:37:13;98404.50;;;11.42;100.00
52319;BME280;38258;51.148;14.068;2023-10-08T01:39:44;98405.19;;;11.18;100.00
52319;BME280;38258;51.148;14.068;2023-10-08T01:42:11;98426.56;;;11.05;100.00
52319;BME280;38258;51.148;14.068;2023-10-08T01:44:43;98426.38;;;11.11;100.00
52319;BME280;38258;51.148;14.068;2023-10-08T01:47:12;98434.09;;;10.85;100.00
52319;BME280;38258;51.148;14.068;2023-10-08T01:49:39;98431.06;;;10.69;100.00
52319;BME280;38258;51.148;14.068;2023-10-08T01:52:08;98421.63;;;10.64;100.00
52319;BME280;38258;51.148;14.068;2023-10-08T01:54:44;98418.28;;;10.58;100.00
52319;BME280;38258;51.148;14.068;2023-10-08T01:57:11;98421.69;;;10.60;100.00
52319;BME280;38258;51.148;14.068;2023-10-08T01:59:38;98427.84;;;10.59;100.00
52319;BME280;38258;51.148;14.068;2023-10-08T02:02:05;98431.66;;;10.48;100.00
52319;BME280;38258;51.148;14.068;2023-10-08T02:04:32;98443.63;;;10.56;100.00
52319;BME280;38258;51.148;14.068;2023-10-08T02:07:01;98433.34;;;10.50;100.00
52319;BME280;38258;51.148;14.068;2023-10-08T02:09:29;98433.25;;;10.53;100.00
52319;BME280;38258;51.148;14.068;2023-10-08T02:11:59;98434.25;;;10.49;100.00
52319;BME280;38258;51.148;14.068;2023-10-08T02:14:26;98443.81;;;10.50;100.00
52319;BME280;38258;51.148;14.068;2023-10-08T02:16:57;98444.72;;;10.48;100.00
52319;BME280;38258;51.148;14.068;2023-10-08T02:19:28;98445.41;;;10.56;100.00
52319;BME280;38258;51.148;14.068;2023-10-08T02:21:55;98445.50;;;10.51;100.00
52319;BME280;38258;51.148;14.068;2023-10-08T02:24:23;98443.53;;;10.59;100.00
52319;BME280;38258;51.148;14.068;2023-10-08T02:26:50;98441.81;;;10.58;100.00
52319;BME280;38258;51.148;14.068;2023-10-08T02:29:19;98448.16;;;10.50;100.00
52319;BME280;38258;51.148;14.068;2023-10-08T02:31:46;98445.00;;;10.37;100.00
52319;BME280;38258;51.148;14.068;2023-10-08T02:34:13;98446.66;;;10.39;100.00
52319;BME280;38258;51.148;14.068;2023-10-08T02:36:40;98473.78;;;10.35;100.00
52319;BME280;38258;51.148;14.068;2023-10-08T02:39:08;98493.00;;;10.32;100.00
52319;BME280;38258;51.148;14.068;2023-10-08T02:41:42;98491.34;;;10.30;100.00
52319;BME280;38258;51.148;14.068;2023-10-08T02:44:11;98511.47;;;10.28;100.00
52319;BME280;38258;51.148;14.068;2023-10-08T02:46:41;98533.19;;;10.30;100.00
52319;BME280;38258;51.148;14.068;2023-10-08T02:49:08;98532.41;;;10.25;100.00
52319;BME280;38258;51.148;14.068;2023-10-08T02:51:38;98548.56;;;10.06;100.00
52319;BME280;38258;51.148;14.068;2023-10-08T02:54:07;98554.03;;;9.95;100.00
52319;BME280;38258;51.148;14.068;2023-10-08T02:56:42;98567.56;;;9.75;100.00
52319;BME280;38258;51.148;14.068;2023-10-08T02:59:10;98563.13;;;9.79;100.00
52319;BME280;38258;51.148;14.068;2023-10-08T03:01:38;98568.22;;;9.85;100.00
52319;BME280;38258;51.148;14.068;2023-10-08T03:04:07;98559.00;;;9.68;100.00
52319;BME280;38258;51.148;14.068;2023-10-08T03:06:43;98575.09;;;9.46;100.00
52319;BME280;38258;51.148;14.068;2023-10-08T03:09:09;98571.47;;;9.55;100.00
52319;BME280;38258;51.148;14.068;2023-10-08T03:11:39;98599.72;;;9.34;100.00
52319;BME280;38258;51.148;14.068;2023-10-08T03:14:12;98609.63;;;9.17;100.00
52319;BME280;38258;51.148;14.068;2023-10-08T03:16:47;98626.69;;;8.88;100.00
52319;BME280;38258;51.148;14.068;2023-10-08T03:19:16;98633.81;;;8.78;100.00
52319;BME280;38258;51.148;14.068;2023-10-08T03:21:45;98623.72;;;8.58;100.00
52319;BME280;38258;51.148;14.068;2023-10-08T03:24:21;98620.50;;;8.40;100.00
52319;BME280;38258;51.148;14.068;2023-10-08T03:27:03;98644.22;;;8.21;100.00
52319;BME280;38258;51.148;14.068;2023-10-08T03:29:37;98655.56;;;8.17;100.00
52319;BME280;38258;51.148;14.068;2023-10-08T03:32:10;98669.50;;;8.15;100.00
52319;BME280;38258;51.148;14.068;2023-10-08T03:34:45;98657.34;;;8.15;100.00
52319;BME280;38258;51.148;14.068;2023-10-08T03:37:13;98674.91;;;8.01;100.00
52319;BME280;38258;51.148;14.068;2023-10-08T03:39:46;98690.44;;;8.07;100.00
52319;BME280;38258;51.148;14.068;2023-10-08T03:42:26;98681.06;;;7.97;100.00
52319;BME280;38258;51.148;14.068;2023-10-08T03:44:59;98676.53;;;8.11;100.00
52319;BME280;38258;51.148;14.068;2023-10-08T03:47:35;98669.66;;;8.05;100.00
52319;BME280;38258;51.148;14.068;2023-10-08T03:50:05;98661.00;;;8.02;100.00
52319;BME280;38258;51.148;14.068;2023-10-08T03:52:32;98663.50;;;8.08;100.00
52319;BME280;38258;51.148;14.068;2023-10-08T03:55:02;98679.91;;;8.16;100.00
52319;BME280;38258;51.148;14.068;2023-10-08T03:57:38;98689.66;;;8.02;100.00
52319;BME280;38258;51.148;14.068;2023-10-08T04:00:08;98703.44;;;8.10;100.00
52319;BME280;38258;51.148;14.068;2023-10-08T04:02:39;98699.94;;;8.13;100.00
52319;BME280;38258;51.148;14.068;2023-10-08T04:05:08;98717.38;;;8.07;100.00
52319;BME280;38258;51.148;14.068;2023-10-08T04:07:45;98725.88;;;8.22;100.00
52319;BME280;38258;51.148;14.068;2023-10-08T04:10:32;98706.41;;;8.46;100.00
52319;BME280;38258;51.148;14.068;2023-10-08T04:13:25;98699.56;;;8.39;100.00
52319;BME280;38258;51.148;14.068;2023-10-08T04:15:51;98694.28;;;8.45;100.00
52319;BME280;38258;51.148;14.068;2023-10-08T04:18:18;98704.75;;;8.42;100.00
52319;BME280;38258;51.148;14.068;2023-10-08T04:20:47;98701.38;;;8.34;100.00
52319;BME280;38258;51.148;14.068;2023-10-08T04:23:26;98712.69;;;8.33;100.00
52319;BME280;38258;51.148;14.068;2023-10-08T04:25:54;98715.44;;;8.22;100.00
52319;BME280;38258;51.148;14.068;2023-10-08T04:28:21;98729.41;;;8.18;100.00
52319;BME280;38258;51.148;14.068;2023-10-08T04:30:48;98717.13;;;8.28;100.00
52319;BME280;38258;51.148;14.068;2023-10-08T04:33:16;98733.63;;;8.27;100.00
52319;BME280;38258;51.148;14.068;2023-10-08T04:35:46;98726.84;;;8.13;100.00
52319;BME280;38258;51.148;14.068;2023-10-08T04:38:19;98733.69;;;8.20;100.00
52319;BME280;38258;51.148;14.068;2023-10-08T04:40:47;98729.94;;;8.43;100.00
52319;BME280;38258;51.148;14.068;2023-10-08T04:43:15;98734.53;;;8.23;100.00
52319;BME280;38258;51.148;14.068;2023-10-08T04:45:48;98735.41;;;8.21;100.00
52319;BME280;38258;51.148;14.068;2023-10-08T04:48:15;98737.88;;;8.34;100.00
52319;BME280;38258;51.148;14.068;2023-10-08T04:50:47;98763.97;;;8.29;100.00
52319;BME280;38258;51.148;14.068;2023-10-08T04:53:24;98769.28;;;8.21;100.00
52319;BME280;38258;51.148;14.068;2023-10-08T04:55:58;98762.16;;;8.38;100.00
52319;BME280;38258;51.148;14.068;2023-10-08T04:58:28;98781.38;;;8.29;100.00
52319;BME280;38258;51.148;14.068;2023-10-08T05:01:00;98790.19;;;8.17;100.00
52319;BME280;38258;51.148;14.068;2023-10-08T05:03:43;98777.84;;;8.34;100.00
52319;BME280;38258;51.148;14.068;2023-10-08T05:06:23;98793.56;;;8.27;100.00
52319;BME280;38258;51.148;14.068;2023-10-08T05:09:15;98805.88;;;8.15;100.00
52319;BME280;38258;51.148;14.068;2023-10-08T05:11:49;98812.88;;;8.09;100.00
52319;BME280;38258;51.148;14.068;2023-10-08T05:14:34;98819.16;;;7.90;100.00
52319;BME280;38258;51.148;14.068;2023-10-08T05:17:07;98824.31;;;7.93;100.00
52319;BME280;38258;51.148;14.068;2023-10-08T05:19:36;98829.72;;;7.76;100.00
52319;BME280;38258;51.148;14.068;2023-10-08T05:22:27;98833.44;;;7.49;100.00
52319;BME280;38258;51.148;14.068;2023-10-08T05:25:09;98830.84;;;7.49;100.00
52319;BME280;38258;51.148;14.068;2023-10-08T05:27:52;98834.25;;;7.57;100.00
52319;BME280;38258;51.148;14.068;2023-10-08T05:30:25;98842.09;;;7.53;100.00
52319;BME280;38258;51.148;14.068;2023-10-08T05:32:54;98841.91;;;7.71;100.00
52319;BME280;38258;51.148;14.068;2023-10-08T05:35:39;98834.75;;;7.97;100.00
52319;BME280;38258;51.148;14.068;2023-10-08T05:38:18;98838.91;;;8.10;100.00
52319;BME280;38258;51.148;14.068;2023-10-08T05:40:48;98844.25;;;7.99;100.00
52319;BME280;38258;51.148;14.068;2023-10-08T05:43:38;98835.75;;;7.80;100.00
52319;BME280;38258;51.148;14.068;2023-10-08T05:46:37;98836.34;;;8.07;100.00
52319;BME280;38258;51.148;14.068;2023-10-08T05:49:17;98835.50;;;8.05;100.00
52319;BME280;38258;51.148;14.068;2023-10-08T05:52:03;98848.41;;;8.17;100.00
52319;BME280;38258;51.148;14.068;2023-10-08T05:54:48;98850.97;;;8.22;100.00
52319;BME280;38258;51.148;14.068;2023-10-08T05:57:40;98866.56;;;8.25;100.00
52319;BME280;38258;51.148;14.068;2023-10-08T06:00:12;98866.59;;;8.20;100.00
52319;BME280;38258;51.148;14.068;2023-10-08T06:03:24;98868.16;;;8.37;100.00
52319;BME280;38258;51.148;14.068;2023-10-08T06:06:11;98881.56;;;8.04;100.00
52319;BME280;38258;51.148;14.068;2023-10-08T06:09:02;98884.09;;;8.09;100.00
52319;BME280;38258;51.148;14.068;2023-10-08T06:11:47;98878.78;;;8.17;100.00
52319;BME280;38258;51.148;14.068;2023-10-08T06:14:34;98870.97;;;8.20;100.00
52319;BME280;38258;51.148;14.068;2023-10-08T06:17:19;98883.78;;;8.40;100.00
52319;BME280;38258;51.148;14.068;2023-10-08T06:20:22;98901.22;;;8.32;100.00
52319;BME280;38258;51.148;14.068;2023-10-08T06:22:52;98907.28;;;8.34;100.00
52319;BME280;38258;51.148;14.068;2023-10-08T06:25:25;98902.94;;;8.33;100.00
52319;BME280;38258;51.148;14.068;2023-10-08T06:27:53;98895.81;;;8.54;100.00
52319;BME280;38258;51.148;14.068;2023-10-08T06:30:21;98914.13;;;8.44;100.00
52319;BME280;38258;51.148;14.068;2023-10-08T06:32:49;98913.16;;;8.56;100.00
52319;BME280;38258;51.148;14.068;2023-10-08T06:35:16;98909.47;;;8.73;100.00
52319;BME280;38258;51.148;14.068;2023-10-08T06:37:46;98914.59;;;8.81;100.00
52319;BME280;38258;51.148;14.068;2023-10-08T06:40:15;98919.84;;;8.77;100.00
52319;BME280;38258;51.148;14.068;2023-10-08T06:43:10;98931.00;;;8.89;100.00
52319;BME280;38258;51.148;14.068;2023-10-08T06:45:47;98944.91;;;8.91;100.00
52319;BME280;38258;51.148;14.068;2023-10-08T06:48:18;98949.13;;;9.00;100.00
52319;BME280;38258;51.148;14.068;2023-10-08T06:50:46;98962.56;;;8.67;100.00
52319;BME280;38258;51.148;14.068;2023-10-08T06:53:14;98971.13;;;8.79;100.00
52319;BME280;38258;51.148;14.068;2023-10-08T06:55:41;98980.22;;;8.40;100.00
52319;BME280;38258;51.148;14.068;2023-10-08T06:58:10;98980.00;;;8.62;100.00
52319;BME280;38258;51.148;14.068;2023-10-08T07:00:37;98983.59;;;8.55;100.00
52319;BME280;38258;51.148;14.068;2023-10-08T07:03:06;98992.78;;;8.87;100.00
52319;BME280;38258;51.148;14.068;2023-10-08T07:05:37;98981.97;;;9.18;100.00
52319;BME280;38258;51.148;14.068;2023-10-08T07:08:07;98982.41;;;8.84;100.00
52319;BME280;38258;51.148;14.068;2023-10-08T07:10:35;99002.25;;;8.97;100.00
52319;BME280;38258;51.148;14.068;2023-10-08T07:13:02;99005.66;;;9.01;100.00
52319;BME280;38258;51.148;14.068;2023-10-08T07:15:31;99003.31;;;8.79;100.00
52319;BME280;38258;51.148;14.068;2023-10-08T07:17:57;99010.78;;;9.10;100.00
52319;BME280;38258;51.148;14.068;2023-10-08T07:20:35;99010.78;;;9.10;100.00
52319;BME280;38258;51.148;14.068;2023-10-08T07:23:05;99013.28;;;9.16;100.00
52319;BME280;38258;51.148;14.068;2023-10-08T07:25:51;99019.22;;;9.29;100.00
52319;BME280;38258;51.148;14.068;2023-10-08T07:28:19;99023.72;;;9.16;100.00
52319;BME280;38258;51.148;14.068;2023-10-08T07:30:47;99038.59;;;9.10;100.00
52319;BME280;38258;51.148;14.068;2023-10-08T07:33:15;99043.63;;;9.28;100.00
52319;BME280;38258;51.148;14.068;2023-10-08T07:35:46;99047.94;;;9.29;100.00
52319;BME280;38258;51.148;14.068;2023-10-08T07:38:23;99050.38;;;9.45;100.00
52319;BME280;38258;51.148;14.068;2023-10-08T07:40:52;99057.75;;;9.09;100.00
52319;BME280;38258;51.148;14.068;2023-10-08T07:43:20;99052.13;;;9.41;100.00
52319;BME280;38258;51.148;14.068;2023-10-08T07:45:49;99048.63;;;9.44;100.00
52319;BME280;38258;51.148;14.068;2023-10-08T07:48:19;99047.13;;;9.24;100.00
52319;BME280;38258;51.148;14.068;2023-10-08T07:50:48;99059.13;;;9.39;100.00
52319;BME280;38258;51.148;14.068;2023-10-08T07:53:16;99058.16;;;9.46;100.00
52319;BME280;38258;51.148;14.068;2023-10-08T07:55:45;99056.03;;;9.76;100.00
52319;BME280;38258;51.148;14.068;2023-10-08T07:58:14;99060.25;;;9.85;100.00
52319;BME280;38258;51.148;14.068;2023-10-08T08:00:42;99060.81;;;10.06;100.00
52319;BME280;38258;51.148;14.068;2023-10-08T08:03:21;99066.25;;;9.92;100.00
52319;BME280;38258;51.148;14.068;2023-10-08T08:05:48;99072.28;;;9.97;100.00
52319;BME280;38258;51.148;14.068;2023-10-08T08:08:20;99094.84;;;10.04;100.00
52319;BME280;38258;51.148;14.068;2023-10-08T08:10:49;99097.50;;;10.00;100.00
52319;BME280;38258;51.148;14.068;2023-10-08T08:13:24;99095.19;;;9.78;100.00
52319;BME280;38258;51.148;14.068;2023-10-08T08:15:56;99099.69;;;9.67;100.00
52319;BME280;38258;51.148;14.068;2023-10-08T08:18:31;99096.69;;;9.95;100.00
52319;BME280;38258;51.148;14.068;2023-10-08T08:21:00;99102.81;;;9.94;100.00
52319;BME280;38258;51.148;14.068;2023-10-08T08:23:29;99113.16;;;10.01;100.00
52319;BME280;38258;51.148;14.068;2023-10-08T08:25:56;99112.81;;;10.25;100.00
52319;BME280;38258;51.148;14.068;2023-10-08T08:28:37;99108.84;;;9.99;100.00
52319;BME280;38258;51.148;14.068;2023-10-08T08:31:05;99097.97;;;10.27;100.00
52319;BME280;38258;51.148;14.068;2023-10-08T08:33:40;99112.66;;;10.36;100.00
52319;BME280;38258;51.148;14.068;2023-10-08T08:36:19;99117.34;;;10.70;100.00
52319;BME280;38258;51.148;14.068;2023-10-08T08:38:47;99113.91;;;10.66;100.00
52319;BME280;38258;51.148;14.068;2023-10-08T08:41:14;99118.72;;;10.91;100.00
52319;BME280;38258;51.148;14.068;2023-10-08T08:43:44;99107.69;;;11.22;100.00
52319;BME280;38258;51.148;14.068;2023-10-08T08:46:14;99115.13;;;10.98;100.00
52319;BME280;38258;51.148;14.068;2023-10-08T08:48:43;99125.19;;;10.70;100.00
52319;BME280;38258;51.148;14.068;2023-10-08T08:51:11;99126.44;;;10.47;100.00
52319;BME280;38258;51.148;14.068;2023-10-08T08:53:39;99113.22;;;11.07;100.00
52319;BME280;38258;51.148;14.068;2023-10-08T08:56:07;99117.09;;;11.75;100.00
52319;BME280;38258;51.148;14.068;2023-10-08T08:58:35;99119.69;;;10.87;100.00
52319;BME280;38258;51.148;14.068;2023-10-08T09:01:03;99120.22;;;11.05;100.00
52319;BME280;38258;51.148;14.068;2023-10-08T09:03:33;99122.00;;;10.52;100.00
52319;BME280;38258;51.148;14.068;2023-10-08T09:06:04;99127.91;;;12.02;100.00
52319;BME280;38258;51.148;14.068;2023-10-08T09:08:34;99135.22;;;13.64;100.00
52319;BME280;38258;51.148;14.068;2023-10-08T09:11:02;99138.47;;;12.73;100.00
52319;BME280;38258;51.148;14.068;2023-10-08T09:13:31;99137.78;;;13.34;100.00
52319;BME280;38258;51.148;14.068;2023-10-08T09:16:03;99144.47;;;13.46;100.00
52319;BME280;38258;51.148;14.068;2023-10-08T09:18:30;99152.56;;;13.37;100.00
52319;BME280;38258;51.148;14.068;2023-10-08T09:21:10;99143.16;;;15.04;100.00
52319;BME280;38258;51.148;14.068;2023-10-08T09:23:41;99136.19;;;15.52;100.00
52319;BME280;38258;51.148;14.068;2023-10-08T09:26:13;99150.59;;;13.77;100.00
52319;BME280;38258;51.148;14.068;2023-10-08T09:28:44;99167.72;;;13.28;100.00
52319;BME280;38258;51.148;14.068;2023-10-08T09:31:13;99160.28;;;13.10;100.00
52319;BME280;38258;51.148;14.068;2023-10-08T09:33:40;99164.38;;;12.51;100.00
52319;BME280;38258;51.148;14.068;2023-10-08T09:36:09;99161.38;;;13.36;100.00
52319;BME280;38258;51.148;14.068;2023-10-08T09:38:45;99168.66;;;12.91;100.00
52319;BME280;38258;51.148;14.068;2023-10-08T09:41:14;99173.06;;;14.19;100.00
52319;BME280;38258;51.148;14.068;2023-10-08T09:43:41;99173.06;;;14.19;100.00
52319;BME280;38258;51.148;14.068;2023-10-08T09:46:15;99169.13;;;14.32;100.00
52319;BME280;38258;51.148;14.068;2023-10-08T09:48:49;99170.66;;;14.39;100.00
52319;BME280;38258;51.148;14.068;2023-10-08T09:51:20;99176.63;;;13.21;100.00
52319;BME280;38258;51.148;14.068;2023-10-08T09:53:56;99187.44;;;12.74;100.00
52319;BME280;38258;51.148;14.068;2023-10-08T09:56:29;99187.19;;;12.47;100.00
52319;BME280;38258;51.148;14.068;2023-10-08T09:58:56;99188.03;;;11.66;100.00
52319;BME280;38258;51.148;14.068;2023-10-08T10:01:23;99197.03;;;11.52;100.00
52319;BME280;38258;51.148;14.068;2023-10-08T10:03:51;99186.50;;;11.55;100.00
52319;BME280;38258;51.148;14.068;2023-10-08T10:06:19;99198.78;;;12.38;100.00
52319;BME280;38258;51.148;14.068;2023-10-08T10:08:48;99192.50;;;13.51;100.00
52319;BME280;38258;51.148;14.068;2023-10-08T10:11:15;99201.06;;;12.90;100.00
52319;BME280;38258;51.148;14.068;2023-10-08T10:13:44;99198.03;;;12.71;100.00
52319;BME280;38258;51.148;14.068;2023-10-08T10:16:16;99214.91;;;13.65;100.00
52319;BME280;38258;51.148;14.068;2023-10-08T10:18:44;99207.69;;;14.90;100.00
52319;BME280;38258;51.148;14.068;2023-10-08T10:21:29;99218.28;;;13.70;100.00
52319;BME280;38258;51.148;14.068;2023-10-08T10:23:56;99228.41;;;12.01;100.00
52319;BME280;38258;51.148;14.068;2023-10-08T10:26:26;99229.03;;;11.70;100.00
52319;BME280;38258;51.148;14.068;2023-10-08T10:29:21;99230.53;;;11.82;100.00
52319;BME280;38258;51.148;14.068;2023-10-08T10:31:51;99231.44;;;11.34;100.00
52319;BME280;38258;51.148;14.068;2023-10-08T10:34:21;99232.22;;;13.04;100.00
52319;BME280;38258;51.148;14.068;2023-10-08T10:36:51;99224.88;;;15.27;100.00
52319;BME280;38258;51.148;14.068;2023-10-08T10:39:23;99226.06;;;14.63;98.35
52319;BME280;38258;51.148;14.068;2023-10-08T10:41:54;99220.63;;;16.00;94.06
52319;BME280;38258;51.148;14.068;2023-10-08T10:44:23;99224.09;;;15.76;91.32
52319;BME280;38258;51.148;14.068;2023-10-08T10:46:50;99227.00;;;15.68;85.23
52319;BME280;38258;51.148;14.068;2023-10-08T10:49:17;99216.59;;;17.04;80.64
52319;BME280;38258;51.148;14.068;2023-10-08T10:51:49;99230.22;;;14.99;87.71
52319;BME280;38258;51.148;14.068;2023-10-08T10:54:23;99241.63;;;12.77;100.00
52319;BME280;38258;51.148;14.068;2023-10-08T10:56:52;99231.53;;;12.20;100.00
52319;BME280;38258;51.148;14.068;2023-10-08T10:59:29;99233.97;;;11.85;100.00
52319;BME280;38258;51.148;14.068;2023-10-08T11:02:03;99227.34;;;12.51;100.00
52319;BME280;38258;51.148;14.068;2023-10-08T11:04:34;99218.88;;;15.24;91.74
52319;BME280;38258;51.148;14.068;2023-10-08T11:07:15;99222.41;;;16.67;82.78
52319;BME280;38258;51.148;14.068;2023-10-08T11:09:43;99207.47;;;17.52;79.81
52319;BME280;38258;51.148;14.068;2023-10-08T11:12:13;99219.25;;;17.45;79.60
52319;BME280;38258;51.148;14.068;2023-10-08T11:14:46;99229.06;;;15.84;75.80
52319;BME280;38258;51.148;14.068;2023-10-08T11:17:15;99237.25;;;13.81;86.11
52319;BME280;38258;51.148;14.068;2023-10-08T11:19:42;99247.34;;;13.31;99.86
52319;BME280;38258;51.148;14.068;2023-10-08T11:22:11;99243.06;;;12.92;99.45
52319;BME280;38258;51.148;14.068;2023-10-08T11:24:44;99229.31;;;15.00;87.99
52319;BME280;38258;51.148;14.068;2023-10-08T11:27:13;99230.34;;;14.96;86.62
52319;BME280;38258;51.148;14.068;2023-10-08T11:29:55;99240.13;;;14.34;84.11
52319;BME280;38258;51.148;14.068;2023-10-08T11:32:24;99231.84;;;16.29;72.11
52319;BME280;38258;51.148;14.068;2023-10-08T11:34:54;99233.66;;;16.95;70.53
52319;BME280;38258;51.148;14.068;2023-10-08T11:37:28;99232.00;;;16.92;66.68
52319;BME280;38258;51.148;14.068;2023-10-08T11:39:57;99221.44;;;16.70;71.09
52319;BME280;38258;51.148;14.068;2023-10-08T11:42:34;99228.75;;;15.68;75.26
52319;BME280;38258;51.148;14.068;2023-10-08T11:45:09;99216.69;;;17.23;66.54
52319;BME280;38258;51.148;14.068;2023-10-08T11:47:50;99228.13;;;16.10;65.13
52319;BME280;38258;51.148;14.068;2023-10-08T11:50:23;99224.69;;;16.08;66.74
52319;BME280;38258;51.148;14.068;2023-10-08T11:52:59;99215.09;;;19.12;59.68
52319;BME280;38258;51.148;14.068;2023-10-08T11:55:32;99214.72;;;15.93;63.92
52319;BME280;38258;51.148;14.068;2023-10-08T11:58:01;99239.06;;;13.79;74.52
52319;BME280;38258;51.148;14.068;2023-10-08T12:00:36;99226.31;;;13.31;83.21
52319;BME280;38258;51.148;14.068;2023-10-08T12:03:09;99221.69;;;13.74;85.81
52319;BME280;38258;51.148;14.068;2023-10-08T12:05:37;99223.22;;;15.25;73.55
52319;BME280;38258;51.148;14.068;2023-10-08T12:08:13;99236.75;;;14.00;83.69
52319;BME280;38258;51.148;14.068;2023-10-08T12:10:43;99223.94;;;14.76;78.17
52319;BME280;38258;51.148;14.068;2023-10-08T12:13:11;99235.31;;;14.78;76.95
52319;BME280;38258;51.148;14.068;2023-10-08T12:15:38;99230.84;;;14.22;77.41
52319;BME280;38258;51.148;14.068;2023-10-08T12:18:07;99235.84;;;13.00;87.58
52319;BME280;38258;51.148;14.068;2023-10-08T12:20:40;99236.13;;;12.50;85.50
52319;BME280;38258;51.148;14.068;2023-10-08T12:23:10;99237.69;;;12.58;93.13
52319;BME280;38258;51.148;14.068;2023-10-08T12:25:37;99233.94;;;12.29;96.88
52319;BME280;38258;51.148;14.068;2023-10-08T12:28:05;99222.19;;;13.55;89.17
52319;BME280;38258;51.148;14.068;2023-10-08T12:30:33;99205.97;;;15.41;88.50
52319;BME280;38258;51.148;14.068;2023-10-08T12:33:07;99206.78;;;15.18;78.95
52319;BME280;38258;51.148;14.068;2023-10-08T12:35:39;99208.72;;;15.38;73.65
52319;BME280;38258;51.148;14.068;2023-10-08T12:38:06;99205.91;;;15.18;73.29
52319;BME280;38258;51.148;14.068;2023-10-08T12:40:35;99194.72;;;16.99;78.54
52319;BME280;38258;51.148;14.068;2023-10-08T12:43:14;99201.75;;;18.02;70.77
52319;BME280;38258;51.148;14.068;2023-10-08T12:45:45;99201.91;;;16.52;69.80
52319;BME280;38258;51.148;14.068;2023-10-08T12:48:19;99200.09;;;16.97;66.12
52319;BME280;38258;51.148;14.068;2023-10-08T12:50:47;99217.09;;;16.69;72.55
52319;BME280;38258;51.148;14.068;2023-10-08T12:53:21;99207.06;;;17.00;68.26
52319;BME280;38258;51.148;14.068;2023-10-08T12:55:53;99212.03;;;16.63;66.01
52319;BME280;38258;51.148;14.068;2023-10-08T12:58:23;99221.59;;;15.97;63.15
52319;BME280;38258;51.148;14.068;2023-10-08T13:00:52;99202.63;;;17.83;63.65
52319;BME280;38258;51.148;14.068;2023-10-08T13:03:24;99181.06;;;18.48;60.40
52319;BME280;38258;51.148;14.068;2023-10-08T13:05:56;99183.25;;;17.22;58.53
52319;BME280;38258;51.148;14.068;2023-10-08T13:08:29;99191.69;;;14.96;70.54
52319;BME280;38258;51.148;14.068;2023-10-08T13:10:56;99208.44;;;14.08;75.27